Latest Coastal Weather Observations for Tasman Island

IDT60701

Issued at 5:52 am EST Wednesday 3 June 2020 (issued every 10 minutes, with the page automatically refreshed every 10 minutes)

About coastal observations | Map of coastal stations | Coastal observations for TAS | Marine services | Other Formats
Station Details ID: 094155 Name: TASMAN ISLAND Lat: -43.24 Lon: 148.00 Height: 240.0 m
Data from the previous 72 hours. | See also: Recent months at Tasman Island
Date/Time
EST
Wind Sea
Height
m
Swell Vis
km
Cloud Weather Temp
°C
Press
hPa
Rain since
9am
mm
Dir  Spd
kts
Gust
kts
Height
m
Period
s
Dir
03/05:30am SW 33 49 - - - - - - - 6.4 1018.3 1.4
03/05:00am SW 29 42 - - - - - - - 7.7 1017.6 1.4
03/04:50am SW 30 48 - - - - - - - 7.8 1017.2 1.4
03/04:30am SSW 24 41 - - - - - - - 7.1 1016.8 1.4
03/04:00am SSW 23 37 - - - - - - - 7.6 1016.3 1.4
03/03:30am SSW 25 44 - - - - - - - 7.5 1015.2 1.4
03/03:00am SSW 24 36 - - - - - - - 7.8 1014.5 1.4
03/02:30am SSW 27 46 - - - - - - - 7.9 1013.6 1.4
03/02:00am SW 29 45 - - - - - - - 7.5 1012.6 1.4
03/01:56am SW 31 45 - - - - - - - 7.9 1012.6 1.4
03/01:30am SW 35 52 - - - - - - - 8.2 1011.8 1.4
03/01:18am SW 34 51 - - - - - - - 8.2 1011.4 1.4
03/01:08am SW 32 52 - - - - - - - 8.2 1011.2 1.4
03/01:07am SW 33 52 - - - - - - - 8.2 1011.2 1.4
03/01:00am SW 34 51 - - - - - - - 8.2 1010.8 1.4
03/12:30am SW 34 51 - - - - - - - 8.3 1010.2 1.4
03/12:09am SW 31 50 - - - - - - - 7.5 1009.9 1.0
03/12:08am SW 31 49 - - - - - - - 7.6 1010.0 1.0
03/12:02am SW 27 49 - - - - - - - 7.4 1009.5 1.0
03/12:00am SW 23 45 - - - - - - Recent precip. 8.2 1009.6 1.0
 
Date/Time
EST
Wind Sea
Height
m
Swell Vis
km
Cloud Weather Temp
°C
Press
hPa
Rain since
9am
mm
Dir  Spd
kts
Gust
kts
Height
m
Period
s
Dir
02/11:53pm SW 21 45 - - - - - - - 8.4 1009.3 1.0
02/11:31pm WSW 13 33 - - - - - - - 8.2 1008.6 1.0
02/11:30pm SW 12 30 - - - - - - - 8.2 1008.6 1.0
02/11:05pm WSW 15 35 - - - - - - - 8.3 1008.7 0.8
02/11:00pm WSW 12 32 - - - - - - - 8.3 1008.6 0.8
02/10:30pm SW 16 37 - - - - - - - 7.3 1008.1 0.6
02/10:00pm WSW 18 39 - - - - - - - 9.0 1007.5 0.2
02/09:32pm WSW 15 35 - - - - - - - 8.8 1007.4 0.2
02/09:30pm WSW 13 33 - - - - - - - 8.8 1007.3 0.2
02/09:00pm W 9 28 - - - - - - - 8.5 1007.4 0.2
02/08:30pm S 6 15 - - - - - - - 9.7 1006.5 0.2
02/08:00pm SE 6 21 - - - - - - - 9.6 1006.7 0.2
02/07:30pm WSW 12 24 - - - - - - - 9.5 1006.3 0.2
02/07:14pm WSW 15 34 - - - - - - - 9.8 1005.6 0.2
02/07:00pm WSW 9 22 - - - - - - - 9.8 1005.2 0.2
02/06:49pm WSW 15 39 - - - - - - - 9.9 1004.8 0.2
02/06:30pm WSW 11 27 - - - - - - - 9.8 1004.5 0.2
02/06:19pm WSW 15 32 - - - - - - - 9.7 1004.8 0.2
02/06:00pm W 10 23 - - - - - - Recent precip. 9.4 1004.8 0.2
02/05:30pm WSW 14 30 - - - - - - - 9.6 1003.9 0.0
02/05:00pm WSW 8 21 - - - - - - - 11.7 1003.9 0.0
02/04:30pm SSE 5 18 - - - - - - - 12.0 1003.7 0.0
02/04:00pm W 9 23 - - - - - - - 12.5 1003.7 0.0
02/03:30pm W 10 27 - - - - - - - 12.8 1003.6 0.0
02/03:00pm W 9 22 - - - - - - - 12.8 1003.7 0.0
02/02:31pm WNW 25 35 - - - - - - - 13.0 1003.0 0.0
02/02:30pm NW 26 35 - - - - - - - 13.0 1003.0 0.0
02/02:00pm WNW 15 27 - - - - - - - 13.1 1003.9 0.0
02/01:37pm WNW 15 25 - - - - - - - 13.3 1004.1 0.0
02/01:30pm WNW 15 25 - - - - - - - 12.6 1004.0 0.0
02/01:11pm WNW 17 27 - - - - - - - 12.9 1004.5 0.0
02/01:00pm WNW 15 20 - - - - - - - 13.7 1004.7 0.0
02/12:32pm WNW 18 28 - - - - - - - 13.6 1005.2 0.0
02/12:30pm WNW 17 26 - - - - - - - 13.4 1005.2 0.0
02/12:00pm WNW 20 32 - - - - - - - 12.9 1005.2 0.0
02/11:34am WNW 15 28 - - - - - - - 12.5 1005.9 0.0
02/11:30am WNW 12 22 - - - - - - - 12.3 1006.1 0.0
02/11:19am WNW 14 25 - - - - - - - 12.3 1006.5 0.0
02/11:00am WNW 12 19 - - - - - - - 11.7 1006.7 0.0
02/10:33am NW 15 25 - - - - - - - 11.4 1006.5 0.0
02/10:30am NW 15 24 - - - - - - - 11.4 1006.5 0.0
02/10:00am WNW 18 26 - - - - - - - 11.0 1006.4 0.0
02/09:30am NW 14 21 - - - - - - - 10.6 1006.7 0.0
02/09:00am NW 18 25 - - - - - - - 10.6 1006.6 0.0
02/08:30am NW 15 21 - - - - - - - 10.8 1006.8 0.0
02/08:00am WNW 12 20 - - - - - - - 10.3 1007.0 0.0
02/07:30am WNW 14 22 - - - - - - - 9.7 1006.8 0.0
02/07:00am NW 9 16 - - - - - - - 9.0 1007.0 0.0
02/06:30am WNW 12 23 - - - - - - - 9.3 1006.9 0.0
02/06:00am WNW 10 20 - - - - - - - 8.9 1006.4 0.0
02/05:30am WNW 11 22 - - - - - - - 8.9 1006.4 0.0
02/05:00am WNW 8 17 - - - - - - - 8.7 1006.5 0.0
02/04:30am WNW 12 21 - - - - - - - 8.4 1006.5 0.0
02/04:00am WNW 12 19 - - - - - - - 8.4 1006.5 0.0
02/03:30am WNW 12 23 - - - - - - - 8.3 1006.6 0.0
02/03:00am WNW 12 20 - - - - - - - 8.4 1006.9 0.0
02/02:30am WNW 8 17 - - - - - - - 8.5 1006.9 0.0
02/02:00am W 7 19 - - - - - - - 8.2 1006.9 0.0
02/01:30am WNW 9 17 - - - - - - - 7.7 1007.0 0.0
02/01:00am NW 9 20 - - - - - - - 7.5 1007.2 0.0
02/12:30am WNW 10 19 - - - - - - - 7.6 1007.6 0.0
02/12:00am NW 5 21 - - - - - - - 7.7 1007.6 0.0
 
Date/Time
EST
Wind Sea
Height
m
Swell Vis
km
Cloud Weather Temp
°C
Press
hPa
Rain since
9am
mm
Dir  Spd
kts
Gust
kts
Height
m
Period
s
Dir
01/11:30pm NNE 4 11 - - - - - - - 7.5 1007.6 0.0
01/11:00pm WNW 6 18 - - - - - - - 7.6 1007.5 0.0
01/10:30pm SSE 4 14 - - - - - - - 7.6 1007.4 0.0
01/10:00pm WNW 8 17 - - - - - - - 7.7 1007.4 0.0
01/09:30pm WNW 6 13 - - - - - - - 7.8 1007.1 0.0
01/09:00pm W 4 13 - - - - - - - 7.8 1006.9 0.0
01/08:30pm WNW 5 17 - - - - - - - 8.0 1007.0 0.0
01/08:00pm SW 7 18 - - - - - - - 7.8 1006.9 0.0
01/07:30pm SW 11 20 - - - - - - - 7.8 1006.6 0.0
01/07:00pm SW 9 20 - - - - - - - 7.7 1006.1 0.0
01/06:30pm SW 6 14 - - - - - - - 7.7 1005.7 0.0
01/06:00pm SW 8 16 - - - - - - - 7.8 1005.3 0.0
01/05:30pm SSW 10 18 - - - - - - - 7.8 1005.1 0.0
01/05:00pm SSW 11 22 - - - - - - - 7.8 1004.5 0.0
01/04:42pm SSW 15 27 - - - - - - - 8.5 1003.9 0.0
01/04:30pm SSW 13 24 - - - - - - - 8.9 1003.9 0.0
01/04:00pm S 5 20 - - - - - - - 9.9 1003.3 0.0
01/03:30pm WNW 5 10 - - - - - - - 12.1 1003.1 0.0
01/03:00pm WNW 9 12 - - - - - - - 12.1 1002.8 0.0
01/02:30pm WNW 7 11 - - - - - - - 12.3 1002.6 0.0
01/02:00pm WNW 6 11 - - - - - - - 12.5 1002.3 0.0
01/01:30pm NW 5 8 - - - - - - - 13.9 1002.3 0.0
01/01:00pm NNW 5 8 - - - - - - - 13.5 1002.1 0.0
01/12:30pm NNW 7 13 - - - - - - - 13.0 1002.0 0.0
01/12:00pm N 8 12 - - - - - - - 12.8 1002.1 0.0
01/11:30am NNW 8 12 - - - - - - - 12.9 1002.2 0.0
01/11:00am N 10 13 - - - - - - - 12.2 1002.3 0.0
01/10:30am NNW 11 17 - - - - - - - 12.1 1002.1 0.0
01/10:00am NNW 9 15 - - - - - - - 11.5 1002.0 0.0
01/09:30am N 11 15 - - - - - - - 11.2 1001.5 0.0
01/09:00am NNW 12 17 - - - - - - - 10.8 1001.5 0.0
01/08:30am N 14 18 - - - - - - - 9.9 1001.4 0.0
01/08:00am N 12 16 - - - - - - - 9.7 1001.3 0.0
01/07:30am NNE 10 15 - - - - - - - 9.4 1001.2 0.0
01/07:00am NNE 12 17 - - - - - - - 9.5 1000.9 0.0
01/06:30am NNW 12 20 - - - - - - - 9.8 1000.8 0.0
01/06:00am N 10 20 - - - - - - - 9.8 1000.8 0.0
01/05:30am N 13 19 - - - - - - - 10.0 1000.6 0.0
01/05:00am NNW 11 16 - - - - - - - 10.1 1000.5 0.0
01/04:30am NNW 12 20 - - - - - - - 10.0 1000.4 0.0
01/04:00am NNW 10 26 - - - - - - - 10.4 1000.5 0.0
01/03:57am N 8 26 - - - - - - - 9.8 1000.5 0.0
01/03:30am NNW 10 17 - - - - - - - 9.6 1000.8 0.0
01/03:00am N 11 17 - - - - - - - 9.6 1001.0 0.0
01/02:30am N 6 13 - - - - - - - 9.7 1001.4 0.0
01/02:00am NNE 7 13 - - - - - - - 9.5 1001.5 0.0
01/01:30am NNW 13 19 - - - - - - - 9.7 1001.5 0.0
01/01:00am NNW 15 27 - - - - - - - 9.6 1001.7 0.0
01/12:51am NNW 15 27 - - - - - - - 9.7 1001.8 0.0
01/12:30am NNW 16 24 - - - - - - - 9.6 1001.9 0.0
01/12:00am NNW 13 21 - - - - - - - 9.2 1002.1 0.0
 
Date/Time
EST
Wind Sea
Height
m
Swell Vis
km
Cloud Weather Temp
°C
Press
hPa
Rain since
9am
mm
Dir  Spd
kts
Gust
kts
Height
m
Period
s
Dir
31/11:30pm NNW 11 23 - - - - - - - 9.4 1002.6 0.0
31/11:00pm N 10 16 - - - - - - - 9.2 1002.8 0.0
31/10:30pm NNW 14 21 - - - - - - - 9.3 1003.1 0.0
31/10:00pm NW 12 18 - - - - - - - 9.5 1003.6 0.0
31/09:30pm NNW 15 20 - - - - - - - 9.7 1003.8 0.0
31/09:00pm NW 13 21 - - - - - - - 9.9 1003.9 0.0
31/08:30pm NW 14 21 - - - - - - - 10.1 1004.3 0.0
31/08:00pm NW 14 19 - - - - - - - 10.7 1004.3 0.0
31/07:30pm NW 10 16 - - - - - - - 10.3 1004.5 0.0
31/07:00pm NW 9 14 - - - - - - - 10.2 1004.3 0.0
31/06:30pm NNW 6 12 - - - - - - - 10.3 1004.4 0.0
31/06:00pm NNW 10 14 - - - - - - - 10.7 1004.3 0.0
31/05:30pm NNW 12 15 - - - - - - - 10.6 1004.3 0.0
31/05:00pm N 12 15 - - - - - - - 10.7 1004.4 0.0
31/04:30pm N 13 18 - - - - - - - 11.1 1004.5 0.0
31/04:00pm N 11 15 - - - - - - - 11.7 1004.3 0.0
31/03:30pm N 11 16 - - - - - - - 11.4 1004.3 0.0
31/03:00pm N 10 15 - - - - - - - 11.4 1004.2 0.0
31/02:30pm N 10 14 - - - - - - - 11.5 1004.3 0.0
31/02:00pm NNW 7 13 - - - - - - - 11.5 1004.4 0.0
31/01:30pm NW 11 17 - - - - - - - 11.7 1004.6 0.0
31/01:00pm NW 17 29 - - - - - - - 11.9 1004.8 0.0
31/12:30pm NW 17 28 - - - - - - - 11.6 1005.0 0.0
31/12:03pm NW 19 33 - - - - - - - 11.9 1005.1 0.0
31/12:00pm NW 19 28 - - - - - - - 12.0 1005.1 0.0
31/11:30am WNW 19 31 - - - - - - - 12.2 1005.1 0.0
31/11:11am NW 15 28 - - - - - - - 12.3 1005.6 0.0
31/11:00am NW 10 20 - - - - - - - 12.7 1005.8 0.0
31/10:30am NNW 5 12 - - - - - - - 12.6 1006.0 0.0
31/10:00am NW 14 20 - - - - - - - 11.8 1006.2 0.0
31/09:34am NW 16 26 - - - - - - - 11.2 1005.6 0.0
31/09:30am NW 14 25 - - - - - - - 11.2 1005.5 0.0
31/09:00am W 5 16 - - - - - - - 11.0 1005.4 0.0
31/08:30am NW 5 18 - - - - - - - 10.7 1005.4 0.0
31/08:00am WNW 6 17 - - - - - - - 10.5 1004.7 0.0
31/07:30am NNW 6 21 - - - - - - - 10.7 1004.3 0.0
31/07:00am SW 7 24 - - - - - - - 11.3 1003.9 0.0
31/06:30am NNW 6 23 - - - - - - - 11.7 1003.0 0.0
31/06:00am WNW 12 26 - - - - - - - 12.6 1003.1 0.0

Other formats

Comma delimited format used in spreadsheet applications
http://www.bom.gov.au/fwo/IDT60701/IDT60701.95986.axf

JavaScript Object Notation format (JSON) in row-major order
http://www.bom.gov.au/fwo/IDT60701/IDT60701.95986.json

Data quality

Most of these data are generated automatically and are frequently updated. Quality checks on data are not normally performed. It is possible for incorrect values to appear. Refer to information at About Latest Weather Observations and please check the disclaimer before using these data.